sensor_id;sensor_type;location;lat;lon;timestamp;pressure;altitude;pressure_sealevel;temperature;humidity
16821;BME280;8527;49.740;6.604;2023-05-08T00:01:25;100029.09;;;15.90;98.74
16821;BME280;8527;49.740;6.604;2023-05-08T00:06:35;100037.94;;;15.91;98.11
16821;BME280;8527;49.740;6.604;2023-05-08T00:11:34;100029.56;;;16.00;97.38
16821;BME280;8527;49.740;6.604;2023-05-08T00:16:32;100038.84;;;16.05;97.11
16821;BME280;8527;49.740;6.604;2023-05-08T00:21:32;100051.88;;;15.86;99.27
16821;BME280;8527;49.740;6.604;2023-05-08T00:26:33;100049.00;;;15.87;99.09
16821;BME280;8527;49.740;6.604;2023-05-08T00:31:31;100056.91;;;15.96;98.33
16821;BME280;8527;49.740;6.604;2023-05-08T00:36:30;100047.47;;;16.00;98.47
16821;BME280;8527;49.740;6.604;2023-05-08T00:41:38;100050.03;;;15.86;99.53
16821;BME280;8527;49.740;6.604;2023-05-08T00:46:39;100049.41;;;15.84;100.00
16821;BME280;8527;49.740;6.604;2023-05-08T00:51:42;100057.88;;;15.88;98.98
16821;BME280;8527;49.740;6.604;2023-05-08T00:56:47;100065.06;;;15.87;98.87
16821;BME280;8527;49.740;6.604;2023-05-08T01:01:52;100066.00;;;15.73;98.18
16821;BME280;8527;49.740;6.604;2023-05-08T01:06:53;100062.47;;;15.72;98.04
16821;BME280;8527;49.740;6.604;2023-05-08T01:12:02;100075.09;;;15.79;97.95
16821;BME280;8527;49.740;6.604;2023-05-08T01:17:10;100070.53;;;15.79;98.62
16821;BME280;8527;49.740;6.604;2023-05-08T01:22:37;100073.66;;;15.83;98.28
16821;BME280;8527;49.740;6.604;2023-05-08T01:28:04;100075.72;;;15.81;98.09
16821;BME280;8527;49.740;6.604;2023-05-08T01:33:16;100071.69;;;15.63;99.13
16821;BME280;8527;49.740;6.604;2023-05-08T01:38:21;100079.53;;;15.71;100.00
16821;BME280;8527;49.740;6.604;2023-05-08T01:43:30;100077.66;;;15.65;99.23
16821;BME280;8527;49.740;6.604;2023-05-08T01:48:34;100079.91;;;15.61;99.95
16821;BME280;8527;49.740;6.604;2023-05-08T01:53:36;100079.91;;;15.61;99.65
16821;BME280;8527;49.740;6.604;2023-05-08T01:58:40;100079.72;;;15.63;99.79
16821;BME280;8527;49.740;6.604;2023-05-08T02:03:42;100083.63;;;15.67;98.89
16821;BME280;8527;49.740;6.604;2023-05-08T02:08:45;100091.03;;;15.65;98.82
16821;BME280;8527;49.740;6.604;2023-05-08T02:13:47;100088.94;;;15.60;98.87
16821;BME280;8527;49.740;6.604;2023-05-08T02:18:50;100093.38;;;15.53;99.95
16821;BME280;8527;49.740;6.604;2023-05-08T02:23:51;100103.47;;;15.51;98.91
16821;BME280;8527;49.740;6.604;2023-05-08T02:28:55;100104.88;;;15.47;97.98
16821;BME280;8527;49.740;6.604;2023-05-08T02:34:00;100107.38;;;15.49;98.41
16821;BME280;8527;49.740;6.604;2023-05-08T02:39:02;100105.31;;;15.51;98.57
16821;BME280;8527;49.740;6.604;2023-05-08T02:44:05;100119.25;;;15.46;98.73
16821;BME280;8527;49.740;6.604;2023-05-08T02:49:21;100127.78;;;15.35;99.38
16821;BME280;8527;49.740;6.604;2023-05-08T02:54:27;100119.94;;;15.33;99.99
16821;BME280;8527;49.740;6.604;2023-05-08T02:59:35;100115.97;;;15.44;99.22
16821;BME280;8527;49.740;6.604;2023-05-08T03:04:44;100117.41;;;15.46;98.36
16821;BME280;8527;49.740;6.604;2023-05-08T03:09:52;100111.25;;;15.46;98.51
16821;BME280;8527;49.740;6.604;2023-05-08T03:14:59;100102.19;;;15.47;98.60
16821;BME280;8527;49.740;6.604;2023-05-08T03:20:06;100107.72;;;15.45;98.78
16821;BME280;8527;49.740;6.604;2023-05-08T03:25:08;100100.47;;;15.39;98.90
16821;BME280;8527;49.740;6.604;2023-05-08T03:30:10;100099.91;;;15.44;99.23
16821;BME280;8527;49.740;6.604;2023-05-08T03:35:12;100097.88;;;15.46;99.53
16821;BME280;8527;49.740;6.604;2023-05-08T03:40:12;100096.00;;;15.46;100.00
16821;BME280;8527;49.740;6.604;2023-05-08T03:45:13;100096.22;;;15.45;100.00
16821;BME280;8527;49.740;6.604;2023-05-08T03:50:14;100100.03;;;15.36;99.63
16821;BME280;8527;49.740;6.604;2023-05-08T03:55:16;100095.75;;;15.19;100.00
16821;BME280;8527;49.740;6.604;2023-05-08T04:00:28;100104.69;;;15.27;100.00
16821;BME280;8527;49.740;6.604;2023-05-08T04:05:35;100110.34;;;15.17;100.00
16821;BME280;8527;49.740;6.604;2023-05-08T04:10:38;100114.00;;;15.16;100.00
16821;BME280;8527;49.740;6.604;2023-05-08T04:15:43;100115.94;;;15.22;100.00
16821;BME280;8527;49.740;6.604;2023-05-08T04:20:49;100119.81;;;15.19;100.00
16821;BME280;8527;49.740;6.604;2023-05-08T04:25:55;100122.69;;;15.18;100.00
16821;BME280;8527;49.740;6.604;2023-05-08T04:30:55;100128.41;;;15.15;100.00
16821;BME280;8527;49.740;6.604;2023-05-08T04:36:00;100112.44;;;15.22;99.52
16821;BME280;8527;49.740;6.604;2023-05-08T04:40:59;100118.50;;;15.30;100.00
16821;BME280;8527;49.740;6.604;2023-05-08T04:45:57;100124.22;;;15.27;100.00
16821;BME280;8527;49.740;6.604;2023-05-08T04:50:58;100120.34;;;15.30;100.00
16821;BME280;8527;49.740;6.604;2023-05-08T04:55:57;100121.88;;;15.39;99.78
16821;BME280;8527;49.740;6.604;2023-05-08T05:01:00;100124.56;;;15.39;100.00
16821;BME280;8527;49.740;6.604;2023-05-08T05:06:01;100123.31;;;15.42;100.00
16821;BME280;8527;49.740;6.604;2023-05-08T05:11:00;100122.97;;;15.45;100.00
16821;BME280;8527;49.740;6.604;2023-05-08T05:15:59;100129.81;;;15.54;99.46
16821;BME280;8527;49.740;6.604;2023-05-08T05:21:03;100125.75;;;15.58;100.00
16821;BME280;8527;49.740;6.604;2023-05-08T05:26:02;100132.63;;;15.68;100.00
16821;BME280;8527;49.740;6.604;2023-05-08T05:31:03;100140.16;;;15.86;100.00
16821;BME280;8527;49.740;6.604;2023-05-08T05:36:07;100142.41;;;15.82;100.00
16821;BME280;8527;49.740;6.604;2023-05-08T05:41:06;100148.97;;;16.01;99.92
16821;BME280;8527;49.740;6.604;2023-05-08T05:46:04;100160.50;;;16.30;98.79
16821;BME280;8527;49.740;6.604;2023-05-08T05:51:05;100155.88;;;16.53;96.26
16821;BME280;8527;49.740;6.604;2023-05-08T05:56:05;100165.66;;;16.32;96.52
16821;BME280;8527;49.740;6.604;2023-05-08T06:01:03;100158.94;;;16.50;96.49
16821;BME280;8527;49.740;6.604;2023-05-08T06:06:05;100159.31;;;16.11;98.39
16821;BME280;8527;49.740;6.604;2023-05-08T06:11:14;100161.00;;;15.91;99.03
16821;BME280;8527;49.740;6.604;2023-05-08T06:16:12;100167.34;;;16.11;99.48
16821;BME280;8527;49.740;6.604;2023-05-08T06:21:13;100167.59;;;16.16;98.09
16821;BME280;8527;49.740;6.604;2023-05-08T06:26:12;100166.41;;;16.54;95.84
16821;BME280;8527;49.740;6.604;2023-05-08T06:31:10;100171.91;;;16.46;97.13
16821;BME280;8527;49.740;6.604;2023-05-08T06:36:09;100178.78;;;16.62;94.73
16821;BME280;8527;49.740;6.604;2023-05-08T06:41:13;100180.22;;;16.58;96.73
16821;BME280;8527;49.740;6.604;2023-05-08T06:46:12;100190.28;;;16.98;94.04
16821;BME280;8527;49.740;6.604;2023-05-08T06:51:10;100191.06;;;16.43;96.58
16821;BME280;8527;49.740;6.604;2023-05-08T06:56:08;100189.38;;;16.70;96.50
16821;BME280;8527;49.740;6.604;2023-05-08T07:01:09;100198.63;;;16.68;96.01
16821;BME280;8527;49.740;6.604;2023-05-08T07:06:09;100194.31;;;16.73;95.49
16821;BME280;8527;49.740;6.604;2023-05-08T07:11:16;100200.38;;;16.89;94.54
16821;BME280;8527;49.740;6.604;2023-05-08T07:16:17;100200.94;;;16.78;94.97
16821;BME280;8527;49.740;6.604;2023-05-08T07:21:15;100207.91;;;17.07;93.72
16821;BME280;8527;49.740;6.604;2023-05-08T07:26:18;100198.28;;;16.84;92.52
16821;BME280;8527;49.740;6.604;2023-05-08T07:31:22;100201.41;;;17.43;91.38
16821;BME280;8527;49.740;6.604;2023-05-08T07:36:23;100198.16;;;17.62;89.60
16821;BME280;8527;49.740;6.604;2023-05-08T07:41:21;100194.03;;;18.26;87.44
16821;BME280;8527;49.740;6.604;2023-05-08T07:46:23;100192.41;;;18.12;87.15
16821;BME280;8527;49.740;6.604;2023-05-08T07:51:22;100195.25;;;18.51;85.20
16821;BME280;8527;49.740;6.604;2023-05-08T07:56:20;100205.78;;;18.66;84.20
16821;BME280;8527;49.740;6.604;2023-05-08T08:01:19;100213.44;;;17.95;85.50
16821;BME280;8527;49.740;6.604;2023-05-08T08:06:20;100202.66;;;19.28;80.40
16821;BME280;8527;49.740;6.604;2023-05-08T08:11:18;100207.66;;;19.89;78.64
16821;BME280;8527;49.740;6.604;2023-05-08T08:16:17;100202.72;;;19.15;80.84
16821;BME280;8527;49.740;6.604;2023-05-08T08:21:15;100210.03;;;19.01;79.95
16821;BME280;8527;49.740;6.604;2023-05-08T08:26:16;100214.53;;;19.07;80.99
16821;BME280;8527;49.740;6.604;2023-05-08T08:31:14;100212.72;;;18.87;81.03
16821;BME280;8527;49.740;6.604;2023-05-08T08:36:14;100206.69;;;18.98;80.78
16821;BME280;8527;49.740;6.604;2023-05-08T08:41:15;100210.69;;;18.82;80.69
16821;BME280;8527;49.740;6.604;2023-05-08T08:46:14;100205.59;;;18.47;81.76
16821;BME280;8527;49.740;6.604;2023-05-08T08:51:23;100207.88;;;19.16;80.84
16821;BME280;8527;49.740;6.604;2023-05-08T08:56:31;100211.91;;;18.80;79.31
16821;BME280;8527;49.740;6.604;2023-05-08T09:01:32;100209.94;;;19.21;76.83
16821;BME280;8527;49.740;6.604;2023-05-08T09:06:34;100209.78;;;19.80;75.43
16821;BME280;8527;49.740;6.604;2023-05-08T09:11:36;100210.88;;;19.72;76.21
16821;BME280;8527;49.740;6.604;2023-05-08T09:16:36;100218.81;;;21.79;69.92
16821;BME280;8527;49.740;6.604;2023-05-08T09:21:35;100212.50;;;22.81;64.96
16821;BME280;8527;49.740;6.604;2023-05-08T09:26:38;100212.78;;;21.04;69.67
16821;BME280;8527;49.740;6.604;2023-05-08T09:31:37;100207.31;;;20.55;72.70
16821;BME280;8527;49.740;6.604;2023-05-08T09:36:37;100215.09;;;20.63;71.85
16821;BME280;8527;49.740;6.604;2023-05-08T09:41:39;100213.78;;;21.21;70.46
16821;BME280;8527;49.740;6.604;2023-05-08T09:47:08;100217.59;;;21.02;70.62
16821;BME280;8527;49.740;6.604;2023-05-08T09:52:07;100209.47;;;20.64;72.01
16821;BME280;8527;49.740;6.604;2023-05-08T09:57:18;100205.00;;;21.87;67.41
16821;BME280;8527;49.740;6.604;2023-05-08T10:02:16;100200.19;;;23.14;62.63
16821;BME280;8527;49.740;6.604;2023-05-08T10:07:15;100207.59;;;21.21;67.88
16821;BME280;8527;49.740;6.604;2023-05-08T10:12:13;100203.00;;;21.52;67.34
16821;BME280;8527;49.740;6.604;2023-05-08T10:17:20;100193.50;;;22.52;65.77
16821;BME280;8527;49.740;6.604;2023-05-08T10:22:24;100200.44;;;22.24;63.69
16821;BME280;8527;49.740;6.604;2023-05-08T10:27:29;100189.16;;;20.62;69.95
16821;BME280;8527;49.740;6.604;2023-05-08T10:32:37;100189.72;;;20.89;69.22
16821;BME280;8527;49.740;6.604;2023-05-08T10:37:38;100179.50;;;20.73;70.27
16821;BME280;8527;49.740;6.604;2023-05-08T10:42:36;100180.41;;;20.85;68.89
16821;BME280;8527;49.740;6.604;2023-05-08T10:47:44;100181.31;;;20.98;69.34
16821;BME280;8527;49.740;6.604;2023-05-08T10:52:50;100166.41;;;20.58;68.30
16821;BME280;8527;49.740;6.604;2023-05-08T10:58:01;100173.66;;;21.13;66.13
16821;BME280;8527;49.740;6.604;2023-05-08T11:03:07;100164.44;;;21.02;65.35
16821;BME280;8527;49.740;6.604;2023-05-08T11:08:18;100157.78;;;20.67;66.75
16821;BME280;8527;49.740;6.604;2023-05-08T11:13:26;100146.41;;;21.88;62.94
16821;BME280;8527;49.740;6.604;2023-05-08T11:18:28;100144.97;;;23.78;61.10
16821;BME280;8527;49.740;6.604;2023-05-08T11:23:28;100145.06;;;22.62;60.01
16821;BME280;8527;49.740;6.604;2023-05-08T11:28:31;100140.47;;;23.21;58.79
16821;BME280;8527;49.740;6.604;2023-05-08T11:33:36;100144.25;;;22.38;61.56
16821;BME280;8527;49.740;6.604;2023-05-08T11:38:35;100145.56;;;21.33;63.01
16821;BME280;8527;49.740;6.604;2023-05-08T11:49:16;100140.47;;;21.55;63.51
16821;BME280;8527;49.740;6.604;2023-05-08T11:54:18;100135.22;;;21.72;63.45
16821;BME280;8527;49.740;6.604;2023-05-08T11:59:20;100134.03;;;21.68;64.54
16821;BME280;8527;49.740;6.604;2023-05-08T12:04:26;100135.34;;;22.01;63.04
16821;BME280;8527;49.740;6.604;2023-05-08T12:09:27;100143.44;;;21.89;64.65
16821;BME280;8527;49.740;6.604;2023-05-08T12:14:25;100124.84;;;22.65;62.35
16821;BME280;8527;49.740;6.604;2023-05-08T12:19:29;100128.84;;;22.38;61.88
16821;BME280;8527;49.740;6.604;2023-05-08T12:24:27;100118.63;;;22.52;61.78
16821;BME280;8527;49.740;6.604;2023-05-08T12:29:26;100117.84;;;21.68;63.57
16821;BME280;8527;49.740;6.604;2023-05-08T12:34:25;100116.66;;;21.21;64.19
16821;BME280;8527;49.740;6.604;2023-05-08T12:39:26;100122.69;;;21.47;63.62
16821;BME280;8527;49.740;6.604;2023-05-08T12:44:30;100108.22;;;21.96;62.79
16821;BME280;8527;49.740;6.604;2023-05-08T12:49:30;100118.91;;;21.67;62.71
16821;BME280;8527;49.740;6.604;2023-05-08T12:54:35;100100.59;;;21.93;61.71
16821;BME280;8527;49.740;6.604;2023-05-08T12:59:34;100108.91;;;21.91;62.47
16821;BME280;8527;49.740;6.604;2023-05-08T13:04:35;100094.94;;;22.18;60.55
16821;BME280;8527;49.740;6.604;2023-05-08T13:09:36;100098.50;;;22.60;58.61
16821;BME280;8527;49.740;6.604;2023-05-08T13:14:38;100089.03;;;22.22;59.83
16821;BME280;8527;49.740;6.604;2023-05-08T13:19:36;100069.13;;;23.10;58.78
16821;BME280;8527;49.740;6.604;2023-05-08T13:24:38;100073.81;;;22.85;58.14
16821;BME280;8527;49.740;6.604;2023-05-08T13:29:39;100069.09;;;22.93;58.42
16821;BME280;8527;49.740;6.604;2023-05-08T13:34:40;100062.19;;;21.79;60.63
16821;BME280;8527;49.740;6.604;2023-05-08T13:39:43;100062.69;;;22.41;60.20
16821;BME280;8527;49.740;6.604;2023-05-08T13:44:42;100056.03;;;22.19;59.23
16821;BME280;8527;49.740;6.604;2023-05-08T13:49:40;100054.00;;;22.97;59.64
16821;BME280;8527;49.740;6.604;2023-05-08T13:54:39;100046.09;;;22.78;56.99
16821;BME280;8527;49.740;6.604;2023-05-08T13:59:40;100041.47;;;23.08;56.55
16821;BME280;8527;49.740;6.604;2023-05-08T14:04:41;100034.63;;;23.34;55.36
16821;BME280;8527;49.740;6.604;2023-05-08T14:09:39;100043.06;;;23.38;56.96
16821;BME280;8527;49.740;6.604;2023-05-08T14:14:43;100037.47;;;23.27;56.03
16821;BME280;8527;49.740;6.604;2023-05-08T14:19:42;100024.56;;;23.00;56.93
16821;BME280;8527;49.740;6.604;2023-05-08T14:24:46;100027.63;;;23.21;56.93
16821;BME280;8527;49.740;6.604;2023-05-08T14:29:47;100039.22;;;22.70;58.35
16821;BME280;8527;49.740;6.604;2023-05-08T14:34:47;100039.44;;;23.49;57.83
16821;BME280;8527;49.740;6.604;2023-05-08T14:39:46;100038.19;;;23.23;60.88
16821;BME280;8527;49.740;6.604;2023-05-08T14:44:49;100045.22;;;23.07;61.58
16821;BME280;8527;49.740;6.604;2023-05-08T14:49:50;100047.94;;;22.89;61.90
16821;BME280;8527;49.740;6.604;2023-05-08T14:54:49;100037.69;;;22.22;62.41
16821;BME280;8527;49.740;6.604;2023-05-08T14:59:52;100041.78;;;22.24;62.96
16821;BME280;8527;49.740;6.604;2023-05-08T15:04:53;100050.91;;;22.06;63.78
16821;BME280;8527;49.740;6.604;2023-05-08T15:09:51;100043.16;;;21.86;65.15
16821;BME280;8527;49.740;6.604;2023-05-08T15:14:53;100048.56;;;21.74;66.16
16821;BME280;8527;49.740;6.604;2023-05-08T15:19:51;100055.91;;;21.31;66.47
16821;BME280;8527;49.740;6.604;2023-05-08T15:24:50;100068.78;;;21.17;66.30
16821;BME280;8527;49.740;6.604;2023-05-08T15:29:48;100069.69;;;20.12;71.92
16821;BME280;8527;49.740;6.604;2023-05-08T15:34:50;100064.84;;;20.02;73.90
16821;BME280;8527;49.740;6.604;2023-05-08T15:39:51;100069.47;;;20.51;70.44
16821;BME280;8527;49.740;6.604;2023-05-08T15:44:54;100076.66;;;19.76;75.58
16821;BME280;8527;49.740;6.604;2023-05-08T15:49:55;100082.63;;;20.03;74.29
16821;BME280;8527;49.740;6.604;2023-05-08T15:54:54;100081.22;;;19.75;75.32
16821;BME280;8527;49.740;6.604;2023-05-08T15:59:52;100086.19;;;19.53;75.84
16821;BME280;8527;49.740;6.604;2023-05-08T16:04:55;100090.06;;;19.57;75.65
16821;BME280;8527;49.740;6.604;2023-05-08T16:09:53;100079.06;;;19.33;76.86
16821;BME280;8527;49.740;6.604;2023-05-08T16:14:52;100085.25;;;19.08;79.80
16821;BME280;8527;49.740;6.604;2023-05-08T16:19:50;100093.16;;;19.03;81.56
16821;BME280;8527;49.740;6.604;2023-05-08T16:24:54;100085.50;;;19.58;79.75
16821;BME280;8527;49.740;6.604;2023-05-08T16:30:02;100084.31;;;19.28;80.11
16821;BME280;8527;49.740;6.604;2023-05-08T16:35:01;100077.88;;;19.29;81.62
16821;BME280;8527;49.740;6.604;2023-05-08T16:40:05;100077.81;;;19.36;79.64
16821;BME280;8527;49.740;6.604;2023-05-08T16:45:04;100072.53;;;19.22;80.58
16821;BME280;8527;49.740;6.604;2023-05-08T16:50:03;100079.75;;;19.54;78.54
16821;BME280;8527;49.740;6.604;2023-05-08T16:55:05;100079.00;;;19.65;78.75
16821;BME280;8527;49.740;6.604;2023-05-08T17:00:05;100078.28;;;20.02;78.19
16821;BME280;8527;49.740;6.604;2023-05-08T17:05:04;100079.00;;;19.91;78.96
16821;BME280;8527;49.740;6.604;2023-05-08T17:10:06;100074.41;;;19.73;78.81
16821;BME280;8527;49.740;6.604;2023-05-08T17:15:07;100075.75;;;20.07;77.59
16821;BME280;8527;49.740;6.604;2023-05-08T17:20:07;100076.56;;;19.64;79.85
16821;BME280;8527;49.740;6.604;2023-05-08T17:25:11;100071.47;;;20.00;78.88
16821;BME280;8527;49.740;6.604;2023-05-08T17:30:10;100088.94;;;20.16;78.13
16821;BME280;8527;49.740;6.604;2023-05-08T17:35:11;100087.81;;;20.23;79.24
16821;BME280;8527;49.740;6.604;2023-05-08T17:40:12;100087.50;;;20.13;78.88
16821;BME280;8527;49.740;6.604;2023-05-08T17:45:10;100087.94;;;20.10;79.90
16821;BME280;8527;49.740;6.604;2023-05-08T17:50:09;100088.34;;;19.88;81.67
16821;BME280;8527;49.740;6.604;2023-05-08T17:55:14;100083.84;;;19.82;81.12
16821;BME280;8527;49.740;6.604;2023-05-08T18:00:13;100084.38;;;19.91;81.00
16821;BME280;8527;49.740;6.604;2023-05-08T18:05:12;100086.38;;;20.02;80.94
16821;BME280;8527;49.740;6.604;2023-05-08T18:10:10;100090.56;;;19.98;80.71
16821;BME280;8527;49.740;6.604;2023-05-08T18:15:12;100084.59;;;19.89;81.65
16821;BME280;8527;49.740;6.604;2023-05-08T18:20:11;100087.88;;;19.73;82.67
16821;BME280;8527;49.740;6.604;2023-05-08T18:25:10;100080.91;;;19.65;82.38
16821;BME280;8527;49.740;6.604;2023-05-08T18:30:14;100084.41;;;19.65;83.99
16821;BME280;8527;49.740;6.604;2023-05-08T18:35:13;100077.94;;;19.48;84.50
16821;BME280;8527;49.740;6.604;2023-05-08T18:40:12;100082.31;;;19.42;83.40
16821;BME280;8527;49.740;6.604;2023-05-08T18:45:11;100079.41;;;19.44;82.76
16821;BME280;8527;49.740;6.604;2023-05-08T18:50:12;100078.19;;;19.39;82.91
16821;BME280;8527;49.740;6.604;2023-05-08T18:55:10;100072.66;;;19.34;83.79
16821;BME280;8527;49.740;6.604;2023-05-08T19:00:12;100071.72;;;19.22;84.70
16821;BME280;8527;49.740;6.604;2023-05-08T19:05:17;100072.19;;;19.12;85.24
16821;BME280;8527;49.740;6.604;2023-05-08T19:10:16;100080.13;;;19.00;85.42
16821;BME280;8527;49.740;6.604;2023-05-08T19:15:16;100081.13;;;18.99;85.28
16821;BME280;8527;49.740;6.604;2023-05-08T19:20:19;100082.81;;;19.00;84.96
16821;BME280;8527;49.740;6.604;2023-05-08T19:25:20;100091.06;;;18.98;85.33
16821;BME280;8527;49.740;6.604;2023-05-08T19:30:21;100102.88;;;18.97;84.71
16821;BME280;8527;49.740;6.604;2023-05-08T19:35:22;100108.53;;;18.82;86.30
16821;BME280;8527;49.740;6.604;2023-05-08T19:40:24;100104.44;;;18.73;86.08
16821;BME280;8527;49.740;6.604;2023-05-08T19:45:23;100106.38;;;18.59;87.81
16821;BME280;8527;49.740;6.604;2023-05-08T19:50:24;100113.81;;;18.50;87.16
16821;BME280;8527;49.740;6.604;2023-05-08T19:55:25;100117.31;;;18.58;87.22
16821;BME280;8527;49.740;6.604;2023-05-08T20:00:23;100116.84;;;18.67;87.67
16821;BME280;8527;49.740;6.604;2023-05-08T20:05:25;100124.53;;;18.57;88.69
16821;BME280;8527;49.740;6.604;2023-05-08T20:10:24;100117.81;;;18.34;89.99
16821;BME280;8527;49.740;6.604;2023-05-08T20:15:22;100134.75;;;18.35;89.37
16821;BME280;8527;49.740;6.604;2023-05-08T20:20:21;100133.13;;;18.20;89.78
16821;BME280;8527;49.740;6.604;2023-05-08T20:25:24;100138.09;;;18.10;89.49
16821;BME280;8527;49.740;6.604;2023-05-08T20:30:22;100127.34;;;18.03;88.80
16821;BME280;8527;49.740;6.604;2023-05-08T20:35:21;100128.19;;;17.97;89.54
16821;BME280;8527;49.740;6.604;2023-05-08T20:40:25;100120.50;;;18.00;89.34
16821;BME280;8527;49.740;6.604;2023-05-08T20:45:23;100129.00;;;17.97;88.68
16821;BME280;8527;49.740;6.604;2023-05-08T20:50:22;100131.28;;;18.07;89.11
16821;BME280;8527;49.740;6.604;2023-05-08T20:55:26;100125.69;;;17.82;89.62
16821;BME280;8527;49.740;6.604;2023-05-08T21:00:24;100112.47;;;18.00;88.39
16821;BME280;8527;49.740;6.604;2023-05-08T21:05:26;100115.78;;;17.96;87.87
16821;BME280;8527;49.740;6.604;2023-05-08T21:10:27;100118.47;;;17.89;88.09
16821;BME280;8527;49.740;6.604;2023-05-08T21:15:25;100114.13;;;17.75;88.83
16821;BME280;8527;49.740;6.604;2023-05-08T21:20:24;100104.66;;;17.72;88.75
16821;BME280;8527;49.740;6.604;2023-05-08T21:25:27;100096.38;;;17.53;90.20
16821;BME280;8527;49.740;6.604;2023-05-08T21:30:25;100096.19;;;17.41;91.07
16821;BME280;8527;49.740;6.604;2023-05-08T21:35:26;100100.09;;;17.46;90.21
16821;BME280;8527;49.740;6.604;2023-05-08T21:40:27;100094.31;;;17.62;89.46
16821;BME280;8527;49.740;6.604;2023-05-08T21:45:28;100094.31;;;17.49;89.58
16821;BME280;8527;49.740;6.604;2023-05-08T21:50:27;100078.66;;;17.59;88.55
16821;BME280;8527;49.740;6.604;2023-05-08T21:55:28;100084.00;;;17.52;87.82
16821;BME280;8527;49.740;6.604;2023-05-08T22:00:26;100077.22;;;17.70;87.66
16821;BME280;8527;49.740;6.604;2023-05-08T22:05:25;100072.66;;;17.57;87.63
16821;BME280;8527;49.740;6.604;2023-05-08T22:10:23;100062.13;;;17.55;86.22
16821;BME280;8527;49.740;6.604;2023-05-08T22:15:24;100069.97;;;17.30;87.48
16821;BME280;8527;49.740;6.604;2023-05-08T22:20:26;100060.06;;;17.24;88.21
16821;BME280;8527;49.740;6.604;2023-05-08T22:25:25;100061.31;;;17.35;86.69
16821;BME280;8527;49.740;6.604;2023-05-08T22:30:29;100062.97;;;17.29;86.47
16821;BME280;8527;49.740;6.604;2023-05-08T22:35:31;100063.34;;;17.12;87.41
16821;BME280;8527;49.740;6.604;2023-05-08T22:40:32;100065.22;;;17.19;87.01
16821;BME280;8527;49.740;6.604;2023-05-08T22:45:33;100060.47;;;17.07;86.58
16821;BME280;8527;49.740;6.604;2023-05-08T22:50:32;100068.09;;;17.10;86.36
16821;BME280;8527;49.740;6.604;2023-05-08T22:55:33;100053.03;;;17.16;86.41
16821;BME280;8527;49.740;6.604;2023-05-08T23:00:34;100048.28;;;17.05;86.16
16821;BME280;8527;49.740;6.604;2023-05-08T23:05:38;100043.72;;;16.98;87.18
16821;BME280;8527;49.740;6.604;2023-05-08T23:10:37;100034.84;;;16.98;85.84
16821;BME280;8527;49.740;6.604;2023-05-08T23:15:38;100030.72;;;16.95;85.98
16821;BME280;8527;49.740;6.604;2023-05-08T23:20:37;100025.72;;;16.79;86.25
16821;BME280;8527;49.740;6.604;2023-05-08T23:25:37;100015.59;;;16.67;87.62
16821;BME280;8527;49.740;6.604;2023-05-08T23:30:38;100001.63;;;16.79;86.67
16821;BME280;8527;49.740;6.604;2023-05-08T23:35:37;99995.19;;;16.66;88.10
16821;BME280;8527;49.740;6.604;2023-05-08T23:40:35;99992.75;;;16.65;87.44
16821;BME280;8527;49.740;6.604;2023-05-08T23:45:39;99985.72;;;16.50;87.81
16821;BME280;8527;49.740;6.604;2023-05-08T23:50:37;99984.88;;;16.50;88.02
16821;BME280;8527;49.740;6.604;2023-05-08T23:55:36;99985.63;;;16.37;88.87
